createdAt,value
2023-09-29T00:01:40.910Z,70.13
2023-09-29T00:04:07.550Z,69.92
2023-09-29T00:06:34.496Z,70.05
2023-09-29T00:09:01.810Z,69.85
2023-09-29T00:11:32.066Z,69.90
2023-09-29T00:13:59.172Z,70.03
2023-09-29T00:16:25.986Z,69.95
2023-09-29T00:18:52.536Z,69.71
2023-09-29T00:21:19.949Z,69.71
2023-09-29T00:23:46.487Z,69.87
2023-09-29T00:26:13.003Z,69.52
2023-09-29T00:28:40.262Z,69.90
2023-09-29T00:31:07.493Z,69.98
2023-09-29T00:33:34.600Z,69.74
2023-09-29T00:36:01.399Z,69.93
2023-09-29T00:38:28.843Z,70.05
2023-09-29T00:40:56.957Z,69.69
2023-09-29T00:43:23.599Z,69.83
2023-09-29T00:45:51.009Z,69.63
2023-09-29T00:48:18.414Z,69.77
2023-09-29T00:50:46.298Z,69.81
2023-09-29T00:53:15.857Z,69.88
2023-09-29T00:55:44.039Z,69.84
2023-09-29T00:58:13.963Z,69.76
2023-09-29T01:00:41.943Z,69.61
2023-09-29T01:03:10.592Z,69.77
2023-09-29T01:05:48.753Z,69.65
2023-09-29T01:08:18.194Z,69.74
2023-09-29T01:10:45.576Z,69.75
2023-09-29T01:13:13.235Z,69.41
2023-09-29T01:15:40.461Z,69.72
2023-09-29T01:18:07.597Z,69.30
2023-09-29T01:20:35.901Z,69.47
2023-09-29T01:23:04.862Z,69.73
2023-09-29T01:25:31.670Z,69.46
2023-09-29T01:27:58.865Z,69.44
2023-09-29T01:30:26.853Z,69.76
2023-09-29T01:32:57.596Z,69.42
2023-09-29T01:35:24.932Z,69.40
2023-09-29T01:37:54.832Z,69.73
2023-09-29T01:40:24.967Z,69.82
2023-09-29T01:42:52.741Z,69.71
2023-09-29T01:45:20.297Z,69.91
2023-09-29T01:47:48.452Z,69.68
2023-09-29T01:50:16.307Z,70.10
2023-09-29T01:52:47.552Z,70.07
2023-09-29T01:55:20.725Z,69.94
2023-09-29T01:57:48.902Z,70.08
2023-09-29T02:00:21.898Z,70.03
2023-09-29T02:02:49.325Z,70.39
2023-09-29T02:05:19.470Z,70.01
2023-09-29T02:07:47.628Z,69.89
2023-09-29T02:10:21.828Z,70.15
2023-09-29T02:12:56.933Z,70.12
2023-09-29T02:15:25.899Z,70.25
2023-09-29T02:17:53.475Z,70.00
2023-09-29T02:20:22.168Z,70.11
2023-09-29T02:22:49.919Z,70.17
2023-09-29T02:25:18.540Z,70.13
2023-09-29T02:27:45.337Z,70.17
2023-09-29T02:30:13.086Z,70.34
2023-09-29T02:32:42.756Z,70.33
2023-09-29T02:35:10.624Z,70.08
2023-09-29T02:37:37.511Z,70.65
2023-09-29T02:40:10.906Z,71.49
2023-09-29T02:42:37.600Z,72.27
2023-09-29T02:45:05.613Z,73.28
2023-09-29T02:47:32.701Z,73.61
2023-09-29T02:49:59.950Z,73.96
2023-09-29T02:52:28.270Z,74.27
2023-09-29T02:54:57.747Z,74.22
2023-09-29T02:57:24.546Z,74.11
2023-09-29T02:59:52.096Z,74.49
2023-09-29T03:02:18.730Z,74.60
2023-09-29T03:04:48.052Z,74.92
2023-09-29T03:07:14.537Z,74.95
2023-09-29T03:09:41.034Z,74.76
2023-09-29T03:12:08.501Z,75.24
2023-09-29T03:14:35.363Z,75.32
2023-09-29T03:17:01.950Z,75.16
2023-09-29T03:19:29.036Z,75.05
2023-09-29T03:21:55.488Z,75.20
2023-09-29T03:24:23.175Z,75.29
2023-09-29T03:26:50.467Z,74.95
2023-09-29T03:29:18.900Z,75.02
2023-09-29T03:31:46.308Z,75.00
2023-09-29T03:34:12.804Z,74.79
2023-09-29T03:36:40.031Z,74.99
2023-09-29T03:39:07.501Z,75.06
2023-09-29T03:41:34.597Z,75.03
2023-09-29T03:44:01.557Z,74.97
2023-09-29T03:46:30.300Z,75.13
2023-09-29T03:48:57.072Z,75.18
2023-09-29T03:51:24.900Z,75.16
2023-09-29T03:53:57.343Z,75.51
2023-09-29T03:56:24.423Z,75.66
2023-09-29T03:58:51.885Z,75.64
2023-09-29T04:01:18.673Z,75.70
2023-09-29T04:03:45.334Z,75.69
2023-09-29T04:06:12.612Z,75.65
2023-09-29T04:08:39.956Z,75.86
2023-09-29T04:11:07.128Z,75.93
2023-09-29T04:13:34.587Z,76.16
2023-09-29T04:16:08.684Z,76.54
2023-09-29T04:18:36.495Z,76.52
2023-09-29T04:21:03.966Z,76.21
2023-09-29T04:23:30.731Z,76.64
2023-09-29T04:25:57.298Z,76.55
2023-09-29T04:28:23.775Z,76.63
2023-09-29T04:30:50.227Z,76.35
2023-09-29T04:33:16.928Z,76.60
2023-09-29T04:35:44.599Z,76.24
2023-09-29T04:38:11.381Z,76.24
2023-09-29T04:40:39.120Z,76.35
2023-09-29T04:43:06.650Z,76.29
2023-09-29T04:45:35.172Z,75.87
2023-09-29T04:48:02.732Z,76.03
2023-09-29T04:50:30.436Z,75.87
2023-09-29T04:52:57.178Z,76.10
2023-09-29T04:55:23.649Z,76.07
2023-09-29T04:57:53.436Z,75.96
2023-09-29T05:00:19.909Z,76.45
2023-09-29T05:02:46.866Z,75.93
2023-09-29T05:05:13.794Z,76.34
2023-09-29T05:07:40.716Z,76.34
2023-09-29T05:10:07.678Z,76.46
2023-09-29T05:12:34.177Z,76.44
2023-09-29T05:15:00.780Z,76.68
2023-09-29T05:17:40.683Z,76.53
2023-09-29T05:20:13.882Z,76.44
2023-09-29T05:22:40.375Z,76.57
2023-09-29T05:25:07.211Z,76.42
2023-09-29T05:27:33.676Z,76.75
2023-09-29T05:30:00.393Z,76.85
2023-09-29T05:32:26.959Z,76.43
2023-09-29T05:34:53.469Z,76.59
2023-09-29T05:37:19.961Z,76.73
2023-09-29T05:39:46.371Z,76.50
2023-09-29T05:42:13.683Z,76.80
2023-09-29T05:44:40.419Z,76.66
2023-09-29T05:47:06.978Z,76.87
2023-09-29T05:49:33.706Z,76.85
2023-09-29T05:52:00.283Z,76.86
2023-09-29T05:54:26.710Z,76.94
2023-09-29T05:56:53.359Z,77.06
2023-09-29T05:59:19.832Z,77.29
2023-09-29T06:01:47.204Z,77.53
2023-09-29T06:04:13.957Z,77.67
2023-09-29T06:06:40.607Z,77.29
2023-09-29T06:09:07.608Z,77.48
2023-09-29T06:11:34.286Z,77.39
2023-09-29T06:14:00.899Z,77.72
2023-09-29T06:16:27.380Z,77.58
2023-09-29T06:18:54.117Z,77.66
2023-09-29T06:21:20.584Z,78.02
2023-09-29T06:23:47.128Z,78.06
2023-09-29T06:26:13.634Z,78.26
2023-09-29T06:28:40.111Z,77.96
2023-09-29T06:31:07.255Z,78.11
2023-09-29T06:33:33.957Z,78.33
2023-09-29T06:36:00.533Z,78.26
2023-09-29T06:38:37.381Z,78.33
2023-09-29T06:41:03.797Z,78.54
2023-09-29T06:43:30.242Z,78.51
2023-09-29T06:46:01.911Z,78.65
2023-09-29T06:48:29.610Z,78.86
2023-09-29T06:51:00.778Z,78.80
2023-09-29T06:53:29.775Z,79.15
2023-09-29T06:55:56.339Z,79.23
2023-09-29T06:58:22.774Z,79.41
2023-09-29T07:00:50.946Z,79.47
2023-09-29T07:03:17.554Z,79.39
2023-09-29T07:05:44.060Z,79.39
2023-09-29T07:08:10.594Z,79.39
2023-09-29T07:10:37.118Z,79.17
2023-09-29T07:13:03.612Z,79.64
2023-09-29T07:15:30.035Z,79.71
2023-09-29T07:17:56.803Z,79.73
2023-09-29T07:20:23.416Z,79.83
2023-09-29T07:22:52.471Z,79.94
2023-09-29T07:25:19.985Z,79.70
2023-09-29T07:27:46.500Z,79.96
2023-09-29T07:30:13.499Z,79.70
2023-09-29T07:32:42.395Z,80.21
2023-09-29T07:35:09.346Z,79.99
2023-09-29T07:37:36.073Z,80.34
2023-09-29T07:40:02.961Z,80.74
2023-09-29T07:42:29.441Z,81.00
2023-09-29T07:44:55.939Z,80.88
2023-09-29T07:47:22.385Z,81.13
2023-09-29T07:49:48.832Z,81.02
2023-09-29T07:52:15.276Z,81.24
2023-09-29T07:54:41.720Z,81.15
2023-09-29T07:57:08.228Z,81.72
2023-09-29T07:59:34.726Z,82.09
2023-09-29T08:02:01.370Z,82.09
2023-09-29T08:04:28.028Z,82.15
2023-09-29T08:06:54.542Z,83.15
2023-09-29T08:09:20.961Z,83.56
2023-09-29T08:11:47.491Z,84.03
2023-09-29T08:14:14.202Z,84.29
2023-09-29T08:16:41.177Z,84.02
2023-09-29T08:19:07.752Z,84.63
2023-09-29T08:21:34.573Z,84.93
2023-09-29T08:24:03.977Z,84.60
2023-09-29T08:26:32.005Z,84.66
2023-09-29T08:29:00.596Z,85.13
2023-09-29T08:31:27.411Z,85.00
2023-09-29T08:33:54.067Z,85.34
2023-09-29T08:36:21.027Z,85.27
2023-09-29T08:38:47.788Z,85.19
2023-09-29T08:41:16.584Z,85.43
2023-09-29T08:43:56.025Z,85.25
2023-09-29T08:46:27.192Z,85.54
2023-09-29T08:48:56.306Z,85.66
2023-09-29T08:51:26.048Z,85.88
2023-09-29T08:53:53.840Z,85.78
2023-09-29T08:56:21.152Z,85.85
2023-09-29T08:58:47.788Z,85.91
2023-09-29T09:01:14.872Z,85.86
2023-09-29T09:03:41.415Z,86.43
2023-09-29T09:06:26.132Z,86.47
2023-09-29T09:08:54.324Z,86.63
2023-09-29T09:11:21.010Z,86.34
2023-09-29T09:14:04.623Z,85.96
2023-09-29T09:16:35.366Z,86.44
2023-09-29T09:19:15.757Z,86.40
2023-09-29T09:21:44.142Z,86.57
2023-09-29T09:24:24.512Z,86.27
2023-09-29T09:26:53.125Z,85.97
2023-09-29T09:29:20.736Z,86.04
2023-09-29T09:31:54.949Z,86.03
2023-09-29T09:34:32.247Z,86.16
2023-09-29T09:36:59.697Z,86.04
2023-09-29T09:39:28.847Z,86.13
2023-09-29T09:41:57.818Z,86.15
2023-09-29T09:44:26.700Z,85.94
2023-09-29T09:46:58.764Z,85.65
2023-09-29T09:49:29.995Z,85.53
2023-09-29T09:52:04.680Z,85.48
2023-09-29T09:54:36.215Z,85.52
2023-09-29T09:57:10.398Z,85.47
2023-09-29T09:59:37.389Z,85.36
2023-09-29T10:02:07.662Z,86.26
2023-09-29T10:04:37.206Z,86.38
2023-09-29T10:07:05.928Z,86.95
2023-09-29T10:09:46.483Z,87.11
2023-09-29T10:12:31.282Z,87.58
2023-09-29T10:15:00.260Z,88.58
2023-09-29T10:17:40.964Z,88.46
2023-09-29T10:20:20.238Z,89.05
2023-09-29T10:22:48.010Z,90.11
2023-09-29T10:25:21.553Z,90.55
2023-09-29T10:27:51.167Z,90.77
2023-09-29T10:30:17.848Z,91.15
2023-09-29T10:32:46.819Z,91.72
2023-09-29T10:35:20.987Z,91.75
2023-09-29T10:37:55.835Z,91.73
2023-09-29T10:40:24.009Z,92.00
2023-09-29T10:42:55.367Z,92.73
2023-09-29T10:45:37.792Z,92.79
2023-09-29T10:48:08.865Z,93.25
2023-09-29T10:50:50.910Z,93.03
2023-09-29T10:53:19.867Z,93.47
2023-09-29T10:55:48.999Z,93.42
2023-09-29T10:58:19.738Z,93.05
2023-09-29T11:00:50.079Z,92.63
2023-09-29T11:03:19.896Z,92.80
2023-09-29T11:08:44.142Z,93.27
2023-09-29T11:11:10.864Z,92.52
2023-09-29T11:13:39.937Z,93.09
2023-09-29T11:16:18.137Z,93.06
2023-09-29T11:18:47.876Z,93.14
2023-09-29T11:21:14.535Z,92.88
2023-09-29T11:23:45.201Z,92.70
2023-09-29T11:26:13.186Z,92.19
2023-09-29T11:28:48.590Z,92.60
2023-09-29T11:31:18.632Z,92.58
2023-09-29T11:33:46.464Z,92.88
2023-09-29T11:36:18.532Z,92.49
2023-09-29T11:38:46.178Z,92.01
2023-09-29T11:41:14.419Z,91.83
2023-09-29T11:43:41.936Z,91.70
2023-09-29T11:46:10.120Z,91.16
2023-09-29T11:48:38.878Z,90.41
2023-09-29T11:51:06.661Z,89.66
2023-09-29T11:53:33.471Z,88.92
2023-09-29T11:56:00.114Z,88.94
2023-09-29T11:58:26.575Z,88.23
2023-09-29T12:00:53.758Z,88.30
2023-09-29T12:03:22.797Z,88.18
2023-09-29T12:05:53.224Z,88.27
2023-09-29T12:08:20.534Z,87.83
2023-09-29T12:10:47.668Z,87.21
2023-09-29T12:13:16.761Z,86.88
2023-09-29T12:15:47.028Z,86.45
2023-09-29T12:18:13.702Z,85.75
2023-09-29T12:20:41.294Z,84.78
2023-09-29T12:23:09.561Z,83.86
2023-09-29T12:25:39.605Z,83.45
2023-09-29T12:28:06.929Z,82.60
2023-09-29T12:30:34.126Z,81.54
2023-09-29T12:33:00.958Z,81.30
2023-09-29T12:35:28.564Z,80.70
2023-09-29T12:37:55.112Z,80.34
2023-09-29T12:40:21.565Z,80.32
2023-09-29T12:42:48.928Z,79.71
2023-09-29T12:45:18.978Z,79.28
2023-09-29T12:47:46.938Z,78.65
2023-09-29T12:50:13.571Z,77.75
2023-09-29T12:52:40.261Z,77.12
2023-09-29T12:55:07.393Z,77.76
2023-09-29T12:57:33.941Z,77.28
2023-09-29T13:00:01.185Z,77.60
2023-09-29T13:02:33.019Z,77.39
2023-09-29T13:05:00.189Z,77.38
2023-09-29T13:07:26.932Z,77.62
2023-09-29T13:09:53.614Z,77.64
2023-09-29T13:12:31.021Z,77.34
2023-09-29T13:14:58.700Z,77.03
2023-09-29T13:17:25.265Z,77.13
2023-09-29T13:19:51.730Z,77.30
2023-09-29T13:22:18.220Z,77.00
2023-09-29T13:24:44.730Z,76.38
2023-09-29T13:27:11.677Z,76.37
2023-09-29T13:29:39.686Z,76.17
2023-09-29T13:32:06.223Z,76.48
2023-09-29T13:34:32.729Z,75.70
2023-09-29T13:37:00.596Z,75.37
2023-09-29T13:39:28.974Z,75.35
2023-09-29T13:41:55.719Z,74.74
2023-09-29T13:44:22.381Z,74.49
2023-09-29T13:47:03.266Z,74.82
2023-09-29T13:49:30.702Z,74.57
2023-09-29T13:51:57.185Z,74.84
2023-09-29T13:54:23.793Z,74.42
2023-09-29T13:56:50.408Z,74.62
2023-09-29T13:59:17.183Z,73.22
2023-09-29T14:01:43.748Z,72.88
2023-09-29T14:04:10.470Z,72.62
2023-09-29T14:06:37.062Z,72.15
2023-09-29T14:09:16.319Z,71.93
2023-09-29T14:11:44.595Z,72.30
2023-09-29T14:14:11.085Z,72.40
2023-09-29T14:16:37.673Z,72.58
2023-09-29T14:19:04.321Z,72.90
2023-09-29T14:21:30.761Z,73.45
2023-09-29T14:23:57.501Z,73.16
2023-09-29T14:26:24.182Z,73.30
2023-09-29T14:28:50.618Z,73.33
2023-09-29T14:31:17.827Z,73.04
2023-09-29T14:33:45.100Z,73.01
2023-09-29T14:36:11.986Z,72.57
2023-09-29T14:38:40.882Z,70.92
2023-09-29T14:41:09.544Z,70.34
2023-09-29T14:43:37.185Z,69.26
2023-09-29T14:46:11.428Z,69.29
2023-09-29T14:48:38.221Z,68.82
2023-09-29T14:51:06.279Z,67.92
2023-09-29T14:53:33.556Z,67.11
2023-09-29T14:56:08.825Z,67.59
2023-09-29T14:58:35.587Z,67.19
2023-09-29T15:01:02.660Z,66.87
2023-09-29T15:03:32.571Z,66.42
2023-09-29T15:06:14.702Z,66.48
2023-09-29T15:08:42.714Z,65.37
2023-09-29T15:11:09.887Z,63.99
2023-09-29T15:13:36.492Z,63.91
2023-09-29T15:16:05.566Z,64.22
2023-09-29T15:18:32.421Z,63.47
2023-09-29T15:20:58.998Z,63.38
2023-09-29T15:23:25.424Z,63.11
2023-09-29T15:25:53.166Z,62.94
2023-09-29T15:28:20.480Z,62.96
2023-09-29T15:30:48.850Z,62.84
2023-09-29T15:33:16.601Z,63.36
2023-09-29T15:35:56.104Z,63.52
2023-09-29T15:38:24.574Z,63.05
2023-09-29T15:40:54.335Z,63.02
2023-09-29T15:43:21.572Z,63.08
2023-09-29T15:45:49.343Z,62.71
2023-09-29T15:48:16.807Z,61.79
2023-09-29T15:50:43.490Z,62.55
2023-09-29T15:53:12.131Z,62.61
2023-09-29T15:55:43.361Z,62.76
2023-09-29T15:58:11.142Z,62.80
2023-09-29T16:00:38.589Z,63.05
2023-09-29T16:03:08.547Z,63.15
2023-09-29T16:05:35.997Z,63.37
2023-09-29T16:08:03.163Z,63.50
2023-09-29T16:10:30.096Z,63.51
2023-09-29T16:12:56.917Z,63.89
2023-09-29T16:15:23.435Z,63.96
2023-09-29T16:17:50.183Z,63.96
2023-09-29T16:20:16.795Z,64.49
2023-09-29T16:22:43.661Z,64.35
2023-09-29T16:25:11.131Z,64.43
2023-09-29T16:27:37.823Z,64.75
2023-09-29T16:30:05.883Z,65.13
2023-09-29T16:32:33.178Z,65.01
2023-09-29T16:35:03.796Z,65.00
2023-09-29T16:37:34.700Z,65.53
2023-09-29T16:40:08.404Z,65.83
2023-09-29T16:42:41.522Z,65.21
2023-09-29T16:45:08.784Z,65.05
2023-09-29T16:47:35.328Z,65.45
2023-09-29T16:50:01.861Z,65.45
2023-09-29T16:52:28.413Z,65.73
2023-09-29T16:54:54.813Z,65.64
2023-09-29T16:57:22.884Z,65.96
2023-09-29T16:59:50.307Z,65.74
2023-09-29T17:02:17.149Z,65.95
2023-09-29T17:04:43.789Z,66.27
2023-09-29T17:07:10.286Z,66.36
2023-09-29T17:09:37.543Z,66.25
2023-09-29T17:12:04.317Z,66.48
2023-09-29T17:14:30.783Z,66.48
2023-09-29T17:16:57.284Z,66.65
2023-09-29T17:19:23.858Z,66.74
2023-09-29T17:21:50.355Z,66.60
2023-09-29T17:24:16.858Z,66.86
2023-09-29T17:26:43.370Z,66.46
2023-09-29T17:29:10.217Z,66.56
2023-09-29T17:31:37.322Z,66.88
2023-09-29T17:34:03.972Z,67.00
2023-09-29T17:36:30.644Z,66.95
2023-09-29T17:38:57.822Z,66.71
2023-09-29T17:41:24.339Z,66.92
2023-09-29T17:43:50.843Z,66.97
2023-09-29T17:46:17.268Z,67.10
2023-09-29T17:48:44.543Z,67.33
2023-09-29T17:51:12.547Z,67.37
2023-09-29T17:53:39.120Z,67.24
2023-09-29T17:56:06.951Z,67.28
2023-09-29T17:58:33.971Z,67.86
2023-09-29T18:01:04.939Z,68.08
2023-09-29T18:03:31.613Z,68.04
2023-09-29T18:05:58.138Z,67.90
2023-09-29T18:08:24.658Z,67.72
2023-09-29T18:10:52.740Z,67.78
2023-09-29T18:13:19.622Z,67.96
2023-09-29T18:15:46.162Z,67.92
2023-09-29T18:18:12.734Z,67.92
2023-09-29T18:20:39.331Z,67.81
2023-09-29T18:23:05.778Z,68.34
2023-09-29T18:25:32.418Z,68.15
2023-09-29T18:27:59.254Z,68.34
2023-09-29T18:30:27.118Z,68.54
2023-09-29T18:32:54.186Z,68.50
2023-09-29T18:35:20.764Z,68.61
2023-09-29T18:37:47.245Z,68.60
2023-09-29T18:40:14.213Z,68.73
2023-09-29T18:42:40.678Z,68.88
2023-09-29T18:45:07.702Z,68.66
2023-09-29T18:47:34.401Z,68.88
2023-09-29T18:50:01.504Z,68.68
2023-09-29T18:52:27.997Z,68.69
2023-09-29T18:54:54.452Z,68.72
2023-09-29T18:57:20.996Z,68.68
2023-09-29T18:59:47.642Z,68.80
2023-09-29T19:02:14.523Z,69.05
2023-09-29T19:04:40.938Z,69.25
2023-09-29T19:07:07.495Z,69.08
2023-09-29T19:09:34.153Z,69.34
2023-09-29T19:12:02.968Z,69.81
2023-09-29T19:14:30.344Z,69.77
2023-09-29T19:16:56.872Z,69.77
2023-09-29T19:19:24.373Z,70.38
2023-09-29T19:21:50.950Z,70.45
2023-09-29T19:24:17.541Z,70.54
2023-09-29T19:26:44.094Z,70.70
2023-09-29T19:29:10.620Z,70.93
2023-09-29T19:31:37.374Z,71.18
2023-09-29T19:34:04.129Z,70.93
2023-09-29T19:36:32.127Z,71.08
2023-09-29T19:38:58.848Z,71.76
2023-09-29T19:41:28.503Z,71.56
2023-09-29T19:43:55.004Z,71.95
2023-09-29T19:46:23.153Z,71.92
2023-09-29T19:48:52.180Z,72.14
2023-09-29T19:51:19.491Z,72.58
2023-09-29T19:53:46.127Z,72.84
2023-09-29T19:56:13.856Z,72.79
2023-09-29T19:58:41.475Z,72.66
2023-09-29T20:01:09.520Z,72.65
2023-09-29T20:03:36.153Z,72.82
2023-09-29T20:06:03.017Z,72.43
2023-09-29T20:08:31.249Z,72.83
2023-09-29T20:10:57.792Z,72.87
2023-09-29T20:13:24.343Z,73.00
2023-09-29T20:15:54.301Z,73.28
2023-09-29T20:18:21.479Z,73.02
2023-09-29T20:20:48.195Z,73.13
2023-09-29T20:23:15.196Z,72.84
2023-09-29T20:25:41.936Z,72.86
2023-09-29T20:28:08.389Z,73.30
2023-09-29T20:30:34.868Z,73.03
2023-09-29T20:33:01.537Z,73.34
2023-09-29T20:35:28.341Z,73.04
2023-09-29T20:37:54.907Z,73.32
2023-09-29T20:40:21.421Z,73.30
2023-09-29T20:42:47.952Z,73.23
2023-09-29T20:45:14.386Z,73.35
2023-09-29T20:47:42.370Z,73.58
2023-09-29T20:50:09.439Z,73.49
2023-09-29T20:52:35.857Z,73.28
2023-09-29T20:55:02.846Z,73.40
2023-09-29T20:57:30.003Z,73.76
2023-09-29T20:59:56.637Z,74.04
2023-09-29T21:02:23.132Z,73.85
2023-09-29T21:04:50.049Z,73.77
2023-09-29T21:07:16.694Z,73.53
2023-09-29T21:09:43.254Z,73.77
2023-09-29T21:12:11.920Z,73.53
2023-09-29T21:14:38.553Z,73.48
2023-09-29T21:17:05.218Z,73.63
2023-09-29T21:19:35.080Z,73.48
2023-09-29T21:22:04.960Z,73.86
2023-09-29T21:24:31.767Z,74.03
2023-09-29T21:26:58.922Z,73.91
2023-09-29T21:29:25.529Z,73.81
2023-09-29T21:31:53.698Z,74.07
2023-09-29T21:34:20.774Z,73.83
2023-09-29T21:36:47.434Z,73.79
2023-09-29T21:39:14.595Z,74.12
2023-09-29T21:41:43.877Z,74.41
2023-09-29T21:44:14.990Z,74.16
2023-09-29T21:46:42.410Z,74.53
2023-09-29T21:49:09.130Z,74.42
2023-09-29T21:51:37.773Z,74.50
2023-09-29T21:54:04.424Z,74.55
2023-09-29T21:56:30.900Z,74.37
2023-09-29T21:58:58.016Z,74.68
2023-09-29T22:01:24.632Z,74.60
2023-09-29T22:03:51.523Z,74.40
2023-09-29T22:06:19.219Z,74.49
2023-09-29T22:08:45.904Z,74.31
2023-09-29T22:11:13.874Z,74.26
2023-09-29T22:13:41.896Z,74.58
2023-09-29T22:16:09.399Z,74.84
2023-09-29T22:18:36.642Z,74.93
2023-09-29T22:21:03.889Z,74.79
2023-09-29T22:23:32.104Z,74.68
2023-09-29T22:25:59.150Z,74.94
2023-09-29T22:28:25.898Z,74.80
2023-09-29T22:30:54.128Z,74.79
2023-09-29T22:33:22.427Z,74.81
2023-09-29T22:35:49.330Z,74.37
2023-09-29T22:38:15.904Z,74.81
2023-09-29T22:40:42.350Z,74.65
2023-09-29T22:43:08.820Z,74.79
2023-09-29T22:45:35.441Z,75.27
2023-09-29T22:48:02.057Z,75.17
2023-09-29T22:50:28.530Z,74.84
2023-09-29T22:52:55.036Z,74.94
2023-09-29T22:55:21.492Z,74.85
2023-09-29T22:57:48.401Z,74.76
2023-09-29T23:00:15.130Z,74.51
2023-09-29T23:02:44.161Z,74.80
2023-09-29T23:05:12.272Z,75.01
2023-09-29T23:07:38.957Z,74.83
2023-09-29T23:10:06.397Z,75.05
2023-09-29T23:12:33.304Z,74.92
2023-09-29T23:15:01.177Z,74.85
2023-09-29T23:17:27.836Z,75.16
2023-09-29T23:19:54.376Z,75.23
2023-09-29T23:22:20.861Z,74.71
2023-09-29T23:24:47.434Z,74.78
2023-09-29T23:27:14.312Z,74.94
2023-09-29T23:29:40.851Z,75.11
2023-09-29T23:32:07.900Z,74.90
2023-09-29T23:34:35.147Z,75.11
2023-09-29T23:37:01.730Z,75.07
2023-09-29T23:39:28.246Z,75.10
2023-09-29T23:41:55.712Z,75.28
2023-09-29T23:44:24.123Z,75.06
2023-09-29T23:46:50.611Z,75.23
2023-09-29T23:49:17.194Z,74.72
2023-09-29T23:51:45.258Z,74.89
2023-09-29T23:54:12.073Z,75.41
2023-09-29T23:56:38.592Z,75.29
2023-09-29T23:59:05.106Z,75.55
